createdAt,value
2018-11-03T00:01:11.836Z,26.13
2018-11-03T00:03:40.163Z,26.67
2018-11-03T00:06:08.507Z,26.17
2018-11-03T00:08:37.056Z,23.87
2018-11-03T00:11:05.715Z,19.73
2018-11-03T00:13:34.622Z,25.27
2018-11-03T00:16:02.986Z,24.50
2018-11-03T00:18:31.301Z,29.30
2018-11-03T00:20:59.779Z,29.10
2018-11-03T00:23:28.161Z,28.60
2018-11-03T00:25:56.527Z,23.47
2018-11-03T00:28:25.011Z,24.53
2018-11-03T00:30:54.646Z,27.77
2018-11-03T00:33:23.138Z,26.93
2018-11-03T00:35:51.533Z,24.70
2018-11-03T00:38:20.368Z,33.98
2018-11-03T00:40:49.275Z,29.70
2018-11-03T00:43:17.774Z,31.50
2018-11-03T00:45:46.168Z,31.68
2018-11-03T00:48:14.559Z,26.90
2018-11-03T00:50:43.395Z,28.40
2018-11-03T00:53:12.210Z,37.55
2018-11-03T00:58:18.466Z,35.13
2018-11-03T01:00:48.108Z,35.88
2018-11-03T01:03:16.499Z,33.78
2018-11-03T01:05:44.818Z,34.63
2018-11-03T01:08:13.167Z,36.10
2018-11-03T01:10:41.583Z,31.52
2018-11-03T01:13:09.910Z,28.00
2018-11-03T01:15:38.239Z,32.83
2018-11-03T01:18:06.666Z,32.53
2018-11-03T01:20:35.050Z,37.08
2018-11-03T01:23:03.374Z,33.13
2018-11-03T01:25:31.766Z,34.92
2018-11-03T01:28:00.135Z,35.30
2018-11-03T01:30:28.467Z,34.78
2018-11-03T01:32:56.779Z,36.60
2018-11-03T01:35:25.099Z,36.88
2018-11-03T01:37:53.431Z,33.95
2018-11-03T01:40:21.744Z,33.40
2018-11-03T01:42:50.095Z,33.15
2018-11-03T01:45:19.129Z,35.85
2018-11-03T01:47:47.470Z,38.17
2018-11-03T01:50:15.792Z,40.40
2018-11-03T01:52:44.114Z,38.67
2018-11-03T01:55:12.430Z,41.23
2018-11-03T01:57:40.735Z,44.73
2018-11-03T02:00:09.819Z,42.10
2018-11-03T02:02:38.360Z,36.90
2018-11-03T02:05:07.348Z,36.77
2018-11-03T02:07:35.698Z,37.55
2018-11-03T02:10:04.075Z,42.20
2018-11-03T02:12:32.400Z,37.65
2018-11-03T02:15:00.735Z,43.33
2018-11-03T02:17:29.073Z,32.75
2018-11-03T02:19:57.540Z,34.45
2018-11-03T02:22:25.867Z,34.00
2018-11-03T02:24:54.182Z,34.85
2018-11-03T02:27:22.513Z,37.00
2018-11-03T02:29:50.835Z,32.60
2018-11-03T02:32:19.140Z,40.52
2018-11-03T02:34:47.491Z,40.52
2018-11-03T02:37:15.808Z,39.75
2018-11-03T02:39:44.115Z,40.58
2018-11-03T02:42:12.440Z,39.53
2018-11-03T02:44:40.750Z,36.25
2018-11-03T02:47:09.068Z,38.98
2018-11-03T02:49:37.427Z,43.70
2018-11-03T02:52:05.799Z,39.45
2018-11-03T02:54:34.184Z,38.05
2018-11-03T02:57:02.516Z,37.45
2018-11-03T02:59:30.838Z,38.55
2018-11-03T03:01:59.182Z,44.98
2018-11-03T03:04:27.484Z,36.30
2018-11-03T03:06:55.855Z,38.78
2018-11-03T03:09:24.203Z,38.25
2018-11-03T03:11:52.539Z,37.35
2018-11-03T03:14:20.855Z,34.65
2018-11-03T03:16:49.235Z,35.60
2018-11-03T03:19:17.610Z,35.30
2018-11-03T03:21:46.962Z,34.53
2018-11-03T03:24:15.325Z,47.33
2018-11-03T03:26:43.665Z,36.00
2018-11-03T03:29:12.074Z,38.13
2018-11-03T03:31:40.299Z,35.08
2018-11-03T03:34:08.603Z,34.92
2018-11-03T03:36:36.979Z,38.38
2018-11-03T03:39:08.071Z,34.95
2018-11-03T03:41:36.447Z,35.75
2018-11-03T03:44:05.544Z,30.37
2018-11-03T03:46:33.860Z,34.03
2018-11-03T03:49:02.171Z,34.85
2018-11-03T03:51:30.624Z,32.28
2018-11-03T03:53:59.060Z,32.05
2018-11-03T03:56:27.389Z,29.35
2018-11-03T03:58:55.743Z,28.42
2018-11-03T04:01:24.063Z,29.80
2018-11-03T04:03:52.383Z,32.63
2018-11-03T04:06:20.680Z,34.90
2018-11-03T04:08:49.635Z,29.65
2018-11-03T04:11:17.947Z,35.75
2018-11-03T04:13:46.308Z,36.63
2018-11-03T04:16:14.632Z,32.83
2018-11-03T04:18:42.935Z,34.75
2018-11-03T04:21:15.623Z,31.75
2018-11-03T04:23:43.943Z,27.82
2018-11-03T04:26:12.256Z,28.92
2018-11-03T04:28:40.738Z,32.60
2018-11-03T04:31:09.057Z,29.85
2018-11-03T04:33:37.365Z,33.58
2018-11-03T04:36:05.673Z,36.10
2018-11-03T04:38:33.987Z,32.80
2018-11-03T04:41:02.303Z,37.10
2018-11-03T04:43:30.631Z,26.75
2018-11-03T04:45:59.030Z,28.27
2018-11-03T04:48:27.335Z,25.92
2018-11-03T04:50:55.667Z,33.48
2018-11-03T04:53:23.999Z,31.07
2018-11-03T04:55:52.324Z,33.60
2018-11-03T04:58:20.638Z,27.55
2018-11-03T05:00:49.015Z,32.98
2018-11-03T05:03:17.316Z,29.77
2018-11-03T05:05:45.656Z,36.40
2018-11-03T05:08:13.983Z,28.25
2018-11-03T05:10:42.303Z,29.02
2018-11-03T05:13:11.015Z,31.50
2018-11-03T05:15:39.340Z,23.90
2018-11-03T05:18:07.655Z,30.65
2018-11-03T05:20:36.021Z,28.80
2018-11-03T05:23:04.414Z,24.55
2018-11-03T05:25:32.747Z,30.80
2018-11-03T05:28:01.144Z,27.32
2018-11-03T05:30:29.458Z,25.65
2018-11-03T05:32:57.817Z,25.60
2018-11-03T05:35:26.174Z,22.13
2018-11-03T05:37:54.432Z,23.02
2018-11-03T05:40:22.735Z,23.18
2018-11-03T05:42:51.047Z,25.60
2018-11-03T05:45:19.364Z,25.85
2018-11-03T05:47:47.687Z,23.10
2018-11-03T05:50:16.003Z,24.02
2018-11-03T05:52:44.330Z,23.35
2018-11-03T05:55:12.659Z,20.95
2018-11-03T05:57:40.999Z,31.60
2018-11-03T06:00:09.993Z,21.75
2018-11-03T06:02:38.464Z,26.15
2018-11-03T06:05:06.915Z,19.35
2018-11-03T06:07:35.329Z,21.75
2018-11-03T06:10:03.901Z,16.57
2018-11-03T06:12:32.283Z,21.55
2018-11-03T06:15:00.799Z,35.33
2018-11-03T06:17:29.244Z,18.85
2018-11-03T06:19:57.698Z,23.77
2018-11-03T06:22:26.109Z,17.25
2018-11-03T06:24:54.627Z,20.27
2018-11-03T06:27:23.036Z,14.80
2018-11-03T06:29:51.546Z,19.87
2018-11-03T06:32:20.022Z,13.55
2018-11-03T06:34:48.401Z,11.33
2018-11-03T06:37:16.907Z,15.35
2018-11-03T06:39:45.296Z,13.70
2018-11-03T06:42:13.672Z,15.05
2018-11-03T06:44:42.067Z,12.20
2018-11-03T06:47:10.678Z,12.58
2018-11-03T06:49:39.274Z,11.97
2018-11-03T06:52:07.878Z,17.98
2018-11-03T06:54:36.151Z,11.45
2018-11-03T06:57:04.603Z,12.75
2018-11-03T06:59:33.122Z,15.43
2018-11-03T07:02:01.503Z,14.65
2018-11-03T07:04:29.991Z,11.22
2018-11-03T07:06:58.355Z,9.75
2018-11-03T07:09:26.837Z,7.87
2018-11-03T07:11:55.364Z,10.60
2018-11-03T07:14:23.838Z,10.50
2018-11-03T07:16:52.302Z,12.82
2018-11-03T07:19:20.699Z,10.72
2018-11-03T07:21:49.344Z,13.50
2018-11-03T07:24:17.704Z,10.18
2018-11-03T07:26:46.159Z,7.65
2018-11-03T07:29:14.651Z,10.48
2018-11-03T07:31:43.132Z,12.15
2018-11-03T07:34:11.771Z,9.78
2018-11-03T07:36:40.339Z,8.45
2018-11-03T07:39:09.384Z,8.40
2018-11-03T07:41:37.865Z,7.55
2018-11-03T07:44:07.142Z,11.80
2018-11-03T07:46:35.659Z,7.75
2018-11-03T07:49:04.429Z,8.53
2018-11-03T07:51:32.703Z,8.50
2018-11-03T07:54:01.285Z,10.23
2018-11-03T07:56:29.771Z,7.97
2018-11-03T07:58:58.334Z,11.25
2018-11-03T08:01:26.794Z,5.00
2018-11-03T08:03:55.226Z,8.68
2018-11-03T08:06:23.680Z,10.15
2018-11-03T08:08:52.142Z,11.50
2018-11-03T08:11:20.512Z,5.83
2018-11-03T08:13:49.011Z,8.28
2018-11-03T08:16:17.425Z,3.70
2018-11-03T08:18:45.871Z,6.12
2018-11-03T08:21:14.270Z,6.08
2018-11-03T08:23:42.749Z,5.22
2018-11-03T08:26:11.163Z,7.92
2018-11-03T08:28:39.615Z,10.30
2018-11-03T08:31:08.177Z,3.00
2018-11-03T08:33:36.612Z,7.93
2018-11-03T08:36:05.190Z,3.63
2018-11-03T08:38:33.818Z,5.77
2018-11-03T08:41:02.317Z,2.20
2018-11-03T08:43:30.760Z,2.83
2018-11-03T08:45:59.285Z,5.17
2018-11-03T08:48:27.747Z,1.87
2018-11-03T08:50:56.217Z,3.10
2018-11-03T08:53:24.814Z,3.33
2018-11-03T08:55:53.312Z,2.40
2018-11-03T08:58:21.750Z,1.73
2018-11-03T09:00:50.200Z,5.30
2018-11-03T09:03:19.468Z,2.63
2018-11-03T09:05:47.918Z,3.20
2018-11-03T09:08:16.369Z,4.30
2018-11-03T09:10:44.788Z,3.50
2018-11-03T09:13:13.296Z,3.03
2018-11-03T09:15:41.775Z,2.90
2018-11-03T09:18:10.194Z,13.60
2018-11-03T09:20:39.613Z,3.50
2018-11-03T09:23:08.144Z,1.33
2018-11-03T09:25:36.467Z,1.83
2018-11-03T09:28:04.977Z,2.90
2018-11-03T09:30:33.407Z,5.37
2018-11-03T09:33:01.787Z,2.37
2018-11-03T09:35:30.212Z,3.23
2018-11-03T09:37:58.650Z,3.20
2018-11-03T09:40:27.103Z,8.70
2018-11-03T09:42:55.903Z,3.77
2018-11-03T09:45:24.275Z,3.00
2018-11-03T09:47:52.734Z,2.30
2018-11-03T09:50:21.182Z,5.00
2018-11-03T09:52:49.700Z,6.93
2018-11-03T09:55:19.120Z,2.80
2018-11-03T09:57:47.695Z,4.00
2018-11-03T10:00:17.444Z,2.03
2018-11-03T10:02:45.886Z,3.30
2018-11-03T10:05:14.979Z,2.03
2018-11-03T10:07:43.464Z,2.37
2018-11-03T10:10:14.719Z,1.90
2018-11-03T10:12:43.266Z,8.90
2018-11-03T10:15:12.769Z,5.43
2018-11-03T10:17:41.251Z,2.73
2018-11-03T10:20:09.992Z,3.27
2018-11-03T10:22:38.602Z,1.73
2018-11-03T10:25:10.388Z,3.03
2018-11-03T10:27:38.896Z,3.40
2018-11-03T10:30:08.624Z,12.80
2018-11-03T10:32:37.392Z,1.90
2018-11-03T10:35:06.097Z,1.90
2018-11-03T10:37:34.574Z,1.60
2018-11-03T10:40:03.039Z,1.70
2018-11-03T10:42:31.441Z,5.30
2018-11-03T10:44:59.975Z,2.50
2018-11-03T10:47:28.666Z,27.07
2018-11-03T10:49:57.138Z,2.00
2018-11-03T10:52:25.636Z,1.53
2018-11-03T10:54:54.244Z,2.43
2018-11-03T10:57:22.783Z,1.50
2018-11-03T10:59:51.227Z,2.03
2018-11-03T11:02:25.155Z,2.43
2018-11-03T11:04:58.932Z,1.87
2018-11-03T11:07:33.988Z,1.97
2018-11-03T11:10:07.630Z,4.10
2018-11-03T11:12:39.582Z,1.80
2018-11-03T11:15:09.171Z,2.80
2018-11-03T11:17:37.769Z,2.90
2018-11-03T11:20:07.596Z,12.73
2018-11-03T11:22:36.195Z,1.97
2018-11-03T11:25:05.265Z,1.50
2018-11-03T11:27:33.612Z,1.40
2018-11-03T11:30:02.151Z,4.33
2018-11-03T11:32:30.647Z,2.60
2018-11-03T11:34:59.151Z,2.23
2018-11-03T11:37:27.761Z,12.03
2018-11-03T11:39:56.150Z,1.70
2018-11-03T11:42:24.627Z,1.97
2018-11-03T11:44:53.081Z,2.30
2018-11-03T11:47:21.769Z,2.40
2018-11-03T11:49:50.191Z,4.63
2018-11-03T11:52:18.610Z,4.00
2018-11-03T11:54:47.034Z,2.30
2018-11-03T11:57:15.471Z,6.33
2018-11-03T11:59:43.995Z,2.60
2018-11-03T12:02:12.540Z,3.87
2018-11-03T12:04:40.891Z,3.17
2018-11-03T12:07:09.343Z,4.30
2018-11-03T12:09:37.744Z,5.70
2018-11-03T12:12:06.237Z,3.53
2018-11-03T12:14:34.635Z,4.30
2018-11-03T12:17:03.065Z,4.37
2018-11-03T12:19:31.499Z,5.93
2018-11-03T12:21:59.935Z,4.37
2018-11-03T12:24:28.455Z,3.87
2018-11-03T12:26:56.883Z,4.37
2018-11-03T12:29:25.362Z,4.80
2018-11-03T12:31:53.807Z,10.80
2018-11-03T12:34:22.307Z,5.30
2018-11-03T12:36:50.716Z,6.13
2018-11-03T12:39:19.250Z,6.23
2018-11-03T12:41:47.628Z,4.20
2018-11-03T12:44:16.087Z,4.40
2018-11-03T12:46:44.524Z,5.37
2018-11-03T12:49:12.968Z,4.40
2018-11-03T12:51:41.441Z,5.33
2018-11-03T12:54:09.870Z,4.20
2018-11-03T12:56:38.327Z,8.70
2018-11-03T12:59:06.756Z,5.70
2018-11-03T13:01:35.166Z,7.00
2018-11-03T13:04:03.729Z,4.90
2018-11-03T13:06:32.107Z,4.73
2018-11-03T13:09:00.567Z,5.73
2018-11-03T13:11:29.011Z,6.00
2018-11-03T13:13:57.603Z,4.73
2018-11-03T13:16:26.119Z,7.93
2018-11-03T13:18:54.540Z,5.43
2018-11-03T13:21:22.963Z,7.77
2018-11-03T13:23:51.399Z,5.47
2018-11-03T13:26:19.856Z,5.70
2018-11-03T13:28:48.276Z,8.20
2018-11-03T13:31:16.688Z,6.40
2018-11-03T13:33:45.084Z,10.27
2018-11-03T13:36:13.522Z,10.63
2018-11-03T13:38:41.919Z,6.83
2018-11-03T13:41:10.413Z,6.33
2018-11-03T13:43:38.814Z,8.70
2018-11-03T13:46:07.259Z,11.30
2018-11-03T13:48:35.675Z,6.43
2018-11-03T13:51:04.099Z,9.93
2018-11-03T13:53:32.619Z,8.33
2018-11-03T13:56:01.019Z,7.20
2018-11-03T13:58:29.458Z,7.47
2018-11-03T14:00:57.865Z,9.30
2018-11-03T14:03:26.394Z,13.43
2018-11-03T14:05:54.819Z,10.23
2018-11-03T14:08:23.254Z,8.00
2018-11-03T14:10:51.666Z,8.80
2018-11-03T14:13:20.176Z,9.63
2018-11-03T14:15:48.701Z,8.50
2018-11-03T14:18:17.152Z,9.53
2018-11-03T14:20:45.691Z,10.77
2018-11-03T14:23:14.123Z,11.30
2018-11-03T14:25:42.503Z,8.40
2018-11-03T14:28:10.907Z,12.80
2018-11-03T14:30:39.343Z,8.43
2018-11-03T14:33:07.780Z,9.00
2018-11-03T14:35:36.292Z,15.40
2018-11-03T14:38:04.690Z,15.70
2018-11-03T14:40:33.101Z,12.53
2018-11-03T14:43:01.464Z,15.47
2018-11-03T14:45:29.872Z,14.17
2018-11-03T14:47:58.293Z,14.97
2018-11-03T14:50:32.090Z,16.83
2018-11-03T14:53:00.829Z,17.20
2018-11-03T14:55:29.443Z,13.70
2018-11-03T14:57:57.871Z,13.63
2018-11-03T15:00:26.283Z,14.03
2018-11-03T15:02:54.664Z,24.10
2018-11-03T15:05:23.038Z,12.27
2018-11-03T15:07:51.463Z,13.90
2018-11-03T15:10:19.956Z,14.43
2018-11-03T15:12:48.297Z,11.57
2018-11-03T15:15:16.712Z,24.17
2018-11-03T15:17:45.511Z,16.97
2018-11-03T15:20:13.908Z,13.73
2018-11-03T15:22:43.158Z,15.03
2018-11-03T15:25:11.684Z,22.53
2018-11-03T15:27:40.504Z,26.40
2018-11-03T15:30:10.119Z,15.53
2018-11-03T15:32:38.855Z,15.13
2018-11-03T15:35:07.672Z,13.30
2018-11-03T15:37:35.997Z,13.73
2018-11-03T15:40:04.793Z,17.43
2018-11-03T15:42:33.216Z,19.93
2018-11-03T15:45:01.640Z,23.90
2018-11-03T15:47:30.104Z,25.70
2018-11-03T15:49:58.495Z,18.83
2018-11-03T15:52:26.963Z,26.17
2018-11-03T15:54:55.416Z,16.30
2018-11-03T15:57:23.880Z,22.40
2018-11-03T15:59:52.288Z,23.30
2018-11-03T16:02:20.743Z,28.43
2018-11-03T16:04:49.167Z,20.00
2018-11-03T16:07:17.650Z,19.00
2018-11-03T16:09:46.094Z,29.37
2018-11-03T16:12:14.685Z,18.10
2018-11-03T16:14:42.971Z,19.90
2018-11-03T16:17:11.402Z,22.47
2018-11-03T16:19:39.939Z,27.50
2018-11-03T16:22:08.323Z,36.40
2018-11-03T16:24:36.758Z,36.90
2018-11-03T16:27:05.582Z,28.77
2018-11-03T16:29:33.991Z,31.40
2018-11-03T16:32:02.485Z,36.50
2018-11-03T16:34:30.932Z,47.80
2018-11-03T16:36:59.535Z,32.57
2018-11-03T16:39:28.066Z,36.20
2018-11-03T16:41:56.595Z,33.27
2018-11-03T16:44:25.071Z,29.27
2018-11-03T16:46:53.505Z,51.00
2018-11-03T16:49:22.431Z,33.77
2018-11-03T16:51:50.883Z,40.53
2018-11-03T16:54:19.319Z,35.90
2018-11-03T16:56:47.763Z,32.87
2018-11-03T16:59:16.211Z,38.13
2018-11-03T17:01:44.692Z,25.73
2018-11-03T17:04:13.132Z,28.65
2018-11-03T17:06:41.633Z,44.50
2018-11-03T17:09:09.998Z,29.60
2018-11-03T17:11:38.503Z,49.27
2018-11-03T17:14:07.064Z,32.33
2018-11-03T17:16:35.541Z,35.37
2018-11-03T17:19:04.103Z,31.70
2018-11-03T17:21:32.543Z,23.37
2018-11-03T17:24:01.031Z,44.77
2018-11-03T17:26:29.519Z,25.97
2018-11-03T17:28:58.003Z,34.03
2018-11-03T17:31:26.551Z,23.77
2018-11-03T17:33:55.042Z,44.50
2018-11-03T17:36:23.620Z,29.10
2018-11-03T17:38:52.032Z,30.25
2018-11-03T17:41:20.426Z,36.77
2018-11-03T17:43:48.852Z,27.37
2018-11-03T17:46:17.279Z,30.62
2018-11-03T17:48:45.701Z,29.70
2018-11-03T17:51:14.135Z,28.42
2018-11-03T17:53:42.696Z,30.08
2018-11-03T17:56:11.154Z,35.92
2018-11-03T17:58:39.601Z,36.80
2018-11-03T18:01:08.255Z,27.00
2018-11-03T18:03:36.533Z,28.50
2018-11-03T18:06:05.345Z,38.30
2018-11-03T18:08:33.788Z,41.42
2018-11-03T18:11:02.303Z,35.58
2018-11-03T18:13:30.739Z,33.67
2018-11-03T18:15:59.166Z,29.60
2018-11-03T18:18:27.651Z,29.70
2018-11-03T18:20:56.069Z,28.55
2018-11-03T18:23:24.463Z,27.60
2018-11-03T18:25:52.893Z,29.02
2018-11-03T18:28:21.377Z,25.02
2018-11-03T18:30:49.723Z,28.35
2018-11-03T18:33:18.180Z,28.75
2018-11-03T18:35:46.387Z,48.00
2018-11-03T18:38:14.835Z,26.17
2018-11-03T18:40:43.249Z,29.82
2018-11-03T18:43:11.729Z,33.23
2018-11-03T18:45:40.198Z,32.10
2018-11-03T18:48:08.606Z,31.40
2018-11-03T18:50:37.040Z,30.12
2018-11-03T18:53:05.396Z,41.53
2018-11-03T18:55:33.842Z,32.58
2018-11-03T18:58:02.191Z,28.35
2018-11-03T19:00:30.719Z,29.10
2018-11-03T19:02:59.191Z,31.12
2018-11-03T19:05:27.659Z,44.53
2018-11-03T19:07:56.169Z,32.17
2018-11-03T19:10:24.732Z,33.75
2018-11-03T19:12:53.171Z,26.27
2018-11-03T19:15:21.651Z,31.00
2018-11-03T19:17:50.193Z,43.92
2018-11-03T19:20:18.523Z,33.38
2018-11-03T19:22:47.007Z,38.95
2018-11-03T19:25:15.427Z,37.83
2018-11-03T19:27:43.933Z,32.88
2018-11-03T19:30:13.476Z,38.05
2018-11-03T19:32:43.323Z,31.62
2018-11-03T19:35:11.743Z,34.85
2018-11-03T19:37:40.746Z,36.03
2018-11-03T19:40:10.408Z,33.67
2018-11-03T19:42:39.194Z,38.15
2018-11-03T19:45:07.739Z,30.32
2018-11-03T19:47:36.358Z,27.00
2018-11-03T19:50:05.677Z,35.75
2018-11-03T19:52:34.152Z,30.75
2018-11-03T19:55:02.582Z,29.92
2018-11-03T19:57:31.063Z,34.80
2018-11-03T19:59:59.484Z,31.45
2018-11-03T20:02:28.094Z,27.20
2018-11-03T20:04:56.540Z,43.50
2018-11-03T20:07:24.985Z,28.87
2018-11-03T20:09:53.564Z,38.98
2018-11-03T20:12:23.345Z,33.00
2018-11-03T20:14:52.752Z,35.48
2018-11-03T20:17:21.837Z,29.82
2018-11-03T20:19:51.452Z,34.50
2018-11-03T20:22:20.963Z,36.25
2018-11-03T20:24:49.428Z,37.55
2018-11-03T20:27:17.898Z,33.08
2018-11-03T20:29:46.479Z,37.50
2018-11-03T20:32:14.956Z,33.50
2018-11-03T20:34:43.423Z,34.27
2018-11-03T20:37:11.871Z,37.55
2018-11-03T20:39:40.372Z,38.45
2018-11-03T20:42:11.436Z,37.67
2018-11-03T20:44:39.835Z,28.80
2018-11-03T20:47:08.318Z,32.35
2018-11-03T20:49:36.795Z,30.85
2018-11-03T20:52:05.615Z,31.20
2018-11-03T20:54:34.088Z,31.87
2018-11-03T20:57:02.583Z,34.95
2018-11-03T20:59:31.026Z,32.00
2018-11-03T21:01:59.513Z,58.35
2018-11-03T21:04:27.898Z,47.08
2018-11-03T21:06:56.293Z,57.37
2018-11-03T21:09:24.691Z,43.20
2018-11-03T21:11:53.151Z,42.93
2018-11-03T21:14:21.558Z,41.10
2018-11-03T21:16:49.971Z,50.93
2018-11-03T21:19:18.411Z,47.20
2018-11-03T21:21:46.919Z,53.40
2018-11-03T21:24:15.418Z,59.03
2018-11-03T21:26:43.842Z,75.83
2018-11-03T21:29:12.283Z,66.53
2018-11-03T21:31:41.005Z,62.90
2018-11-03T21:34:09.391Z,70.73
2018-11-03T21:36:37.785Z,59.60
2018-11-03T21:39:07.971Z,60.97
2018-11-03T21:41:36.340Z,60.90
2018-11-03T21:44:04.724Z,58.40
2018-11-03T21:46:33.205Z,61.37
2018-11-03T21:49:01.612Z,61.83
2018-11-03T21:51:29.991Z,64.53
2018-11-03T21:53:58.576Z,70.77
2018-11-03T21:56:27.019Z,66.80
2018-11-03T21:58:55.487Z,67.23
2018-11-03T22:01:23.961Z,70.80
2018-11-03T22:03:52.451Z,66.87
2018-11-03T22:06:20.970Z,68.80
2018-11-03T22:08:49.334Z,67.40
2018-11-03T22:11:17.728Z,66.87
2018-11-03T22:13:46.141Z,66.07
2018-11-03T22:16:14.574Z,71.77
2018-11-03T22:18:42.980Z,72.92
2018-11-03T22:21:11.495Z,71.27
2018-11-03T22:23:39.952Z,70.22
2018-11-03T22:26:08.433Z,72.47
2018-11-03T22:28:36.889Z,65.03
2018-11-03T22:31:05.649Z,69.45
2018-11-03T22:33:33.967Z,75.17
2018-11-03T22:36:02.447Z,68.60
2018-11-03T22:38:30.839Z,63.30
2018-11-03T22:40:59.453Z,60.80
2018-11-03T22:43:28.091Z,81.60
2018-11-03T22:45:56.494Z,64.17
2018-11-03T22:48:24.915Z,69.00
2018-11-03T22:50:53.525Z,73.92
2018-11-03T22:53:21.882Z,67.45
2018-11-03T22:55:50.447Z,67.87
2018-11-03T22:58:18.935Z,64.32
2018-11-03T23:00:53.014Z,68.30
2018-11-03T23:03:21.320Z,66.95
2018-11-03T23:05:49.738Z,66.50
2018-11-03T23:08:18.176Z,66.12
2018-11-03T23:10:46.699Z,76.17
2018-11-03T23:13:15.320Z,64.95
2018-11-03T23:15:43.802Z,66.02
2018-11-03T23:18:12.463Z,64.55
2018-11-03T23:20:41.622Z,62.62
2018-11-03T23:23:10.044Z,55.88
2018-11-03T23:25:38.463Z,62.15
2018-11-03T23:28:06.829Z,65.85
2018-11-03T23:30:35.315Z,70.90
2018-11-03T23:33:03.766Z,64.40
2018-11-03T23:35:32.084Z,53.58
2018-11-03T23:38:00.498Z,65.37
2018-11-03T23:40:28.999Z,62.83
2018-11-03T23:42:57.395Z,61.33
2018-11-03T23:45:25.921Z,60.80
2018-11-03T23:47:54.315Z,61.98
2018-11-03T23:50:22.778Z,70.45
2018-11-03T23:52:51.223Z,56.68
2018-11-03T23:55:19.875Z,60.43
2018-11-03T23:57:48.235Z,72.75
